sensor_id;sensor_type;location;lat;lon;timestamp;temperature;humidity
78611;SHT30;67932;50.474;4.436;2023-07-13T00:00:38;15.92;73.67
78611;SHT30;67932;50.474;4.436;2023-07-13T00:03:05;15.92;73.59
78611;SHT30;67932;50.474;4.436;2023-07-13T00:05:31;15.89;74.09
78611;SHT30;67932;50.474;4.436;2023-07-13T00:07:58;15.99;73.93
78611;SHT30;67932;50.474;4.436;2023-07-13T00:10:24;15.85;74.49
78611;SHT30;67932;50.474;4.436;2023-07-13T00:12:50;15.88;74.76
78611;SHT30;67932;50.474;4.436;2023-07-13T00:15:23;15.92;74.58
78611;SHT30;67932;50.474;4.436;2023-07-13T00:17:54;15.89;75.14
78611;SHT30;67932;50.474;4.436;2023-07-13T00:20:21;15.89;75.19
78611;SHT30;67932;50.474;4.436;2023-07-13T00:22:49;15.78;75.76
78611;SHT30;67932;50.474;4.436;2023-07-13T00:25:16;15.74;76.25
78611;SHT30;67932;50.474;4.436;2023-07-13T00:27:43;15.75;76.41
78611;SHT30;67932;50.474;4.436;2023-07-13T00:30:10;15.78;76.59
78611;SHT30;67932;50.474;4.436;2023-07-13T00:32:38;15.74;76.92
78611;SHT30;67932;50.474;4.436;2023-07-13T00:35:04;15.72;77.01
78611;SHT30;67932;50.474;4.436;2023-07-13T00:37:31;15.65;77.48
78611;SHT30;67932;50.474;4.436;2023-07-13T00:39:58;15.61;77.92
78611;SHT30;67932;50.474;4.436;2023-07-13T00:42:25;15.55;78.18
78611;SHT30;67932;50.474;4.436;2023-07-13T00:46:07;15.59;78.02
78611;SHT30;67932;50.474;4.436;2023-07-13T00:47:53;15.54;78.24
78611;SHT30;67932;50.474;4.436;2023-07-13T00:50:21;15.57;78.30
78611;SHT30;67932;50.474;4.436;2023-07-13T00:52:50;15.66;78.07
78611;SHT30;67932;50.474;4.436;2023-07-13T00:55:19;15.45;78.74
78611;SHT30;67932;50.474;4.436;2023-07-13T00:57:47;15.48;78.85
78611;SHT30;67932;50.474;4.436;2023-07-13T01:00:13;15.48;78.68
78611;SHT30;67932;50.474;4.436;2023-07-13T01:02:42;15.50;78.62
78611;SHT30;67932;50.474;4.436;2023-07-13T01:05:11;15.42;79.13
78611;SHT30;67932;50.474;4.436;2023-07-13T01:07:40;15.45;79.08
78611;SHT30;67932;50.474;4.436;2023-07-13T01:10:08;15.48;79.15
78611;SHT30;67932;50.474;4.436;2023-07-13T01:12:34;15.40;79.32
78611;SHT30;67932;50.474;4.436;2023-07-13T01:15:02;15.45;79.12
78611;SHT30;67932;50.474;4.436;2023-07-13T01:17:29;15.41;79.45
78611;SHT30;67932;50.474;4.436;2023-07-13T01:19:56;15.32;79.63
78611;SHT30;67932;50.474;4.436;2023-07-13T01:22:23;15.38;79.37
78611;SHT30;67932;50.474;4.436;2023-07-13T01:24:52;15.41;79.32
78611;SHT30;67932;50.474;4.436;2023-07-13T01:27:23;15.32;79.48
78611;SHT30;67932;50.474;4.436;2023-07-13T01:29:51;15.37;79.33
78611;SHT30;67932;50.474;4.436;2023-07-13T01:32:23;15.32;79.52
78611;SHT30;67932;50.474;4.436;2023-07-13T01:34:54;15.40;79.37
78611;SHT30;67932;50.474;4.436;2023-07-13T01:37:21;15.32;79.24
78611;SHT30;67932;50.474;4.436;2023-07-13T01:39:48;15.38;79.43
78611;SHT30;67932;50.474;4.436;2023-07-13T01:42:14;15.27;79.58
78611;SHT30;67932;50.474;4.436;2023-07-13T01:44:41;15.23;79.69
78611;SHT30;67932;50.474;4.436;2023-07-13T01:47:07;15.17;79.80
78611;SHT30;67932;50.474;4.436;2023-07-13T01:49:33;15.28;79.47
78611;SHT30;67932;50.474;4.436;2023-07-13T01:52:00;15.12;79.89
78611;SHT30;67932;50.474;4.436;2023-07-13T01:54:26;15.14;80.14
78611;SHT30;67932;50.474;4.436;2023-07-13T01:56:53;15.14;80.07
78611;SHT30;67932;50.474;4.436;2023-07-13T01:59:19;15.12;80.10
78611;SHT30;67932;50.474;4.436;2023-07-13T02:01:45;14.91;80.65
78611;SHT30;67932;50.474;4.436;2023-07-13T02:04:11;15.01;80.50
78611;SHT30;67932;50.474;4.436;2023-07-13T02:06:38;15.00;80.55
78611;SHT30;67932;50.474;4.436;2023-07-13T02:09:04;15.01;80.42
78611;SHT30;67932;50.474;4.436;2023-07-13T02:11:30;14.84;80.95
78611;SHT30;67932;50.474;4.436;2023-07-13T02:14:00;14.93;80.78
78611;SHT30;67932;50.474;4.436;2023-07-13T02:16:30;14.83;81.27
78611;SHT30;67932;50.474;4.436;2023-07-13T02:18:57;14.84;81.15
78611;SHT30;67932;50.474;4.436;2023-07-13T02:21:23;14.75;81.79
78611;SHT30;67932;50.474;4.436;2023-07-13T02:23:50;14.73;81.90
78611;SHT30;67932;50.474;4.436;2023-07-13T02:26:16;14.76;81.99
78611;SHT30;67932;50.474;4.436;2023-07-13T02:28:42;14.75;82.09
78611;SHT30;67932;50.474;4.436;2023-07-13T02:31:11;14.67;82.09
78611;SHT30;67932;50.474;4.436;2023-07-13T02:33:37;14.75;82.01
78611;SHT30;67932;50.474;4.436;2023-07-13T02:36:05;14.62;82.53
78611;SHT30;67932;50.474;4.436;2023-07-13T02:38:35;14.66;82.50
78611;SHT30;67932;50.474;4.436;2023-07-13T02:41:06;14.66;82.53
78611;SHT30;67932;50.474;4.436;2023-07-13T02:43:32;14.63;82.61
78611;SHT30;67932;50.474;4.436;2023-07-13T02:46:00;14.66;82.62
78611;SHT30;67932;50.474;4.436;2023-07-13T02:48:36;14.46;83.27
78611;SHT30;67932;50.474;4.436;2023-07-13T02:51:03;14.62;82.92
78611;SHT30;67932;50.474;4.436;2023-07-13T02:53:30;14.57;83.23
78611;SHT30;67932;50.474;4.436;2023-07-13T02:55:56;14.65;83.04
78611;SHT30;67932;50.474;4.436;2023-07-13T02:58:22;14.65;83.04
78611;SHT30;67932;50.474;4.436;2023-07-13T03:00:49;14.59;83.05
78611;SHT30;67932;50.474;4.436;2023-07-13T03:03:16;14.65;83.11
78611;SHT30;67932;50.474;4.436;2023-07-13T03:05:44;14.52;83.76
78611;SHT30;67932;50.474;4.436;2023-07-13T03:08:11;14.56;83.58
78611;SHT30;67932;50.474;4.436;2023-07-13T03:10:38;14.53;83.79
78611;SHT30;67932;50.474;4.436;2023-07-13T03:13:05;14.46;84.01
78611;SHT30;67932;50.474;4.436;2023-07-13T03:15:32;14.46;84.33
78611;SHT30;67932;50.474;4.436;2023-07-13T03:17:58;14.55;84.08
78611;SHT30;67932;50.474;4.436;2023-07-13T03:20:24;14.69;83.73
78611;SHT30;67932;50.474;4.436;2023-07-13T03:22:50;14.62;84.05
78611;SHT30;67932;50.474;4.436;2023-07-13T03:25:17;14.65;84.06
78611;SHT30;67932;50.474;4.436;2023-07-13T03:27:43;14.62;84.30
78611;SHT30;67932;50.474;4.436;2023-07-13T03:30:09;14.73;84.12
78611;SHT30;67932;50.474;4.436;2023-07-13T03:32:36;14.73;84.04
78611;SHT30;67932;50.474;4.436;2023-07-13T03:35:02;14.76;83.86
78611;SHT30;67932;50.474;4.436;2023-07-13T03:37:29;14.81;83.53
78611;SHT30;67932;50.474;4.436;2023-07-13T03:39:55;14.80;83.73
78611;SHT30;67932;50.474;4.436;2023-07-13T03:42:21;14.81;84.02
78611;SHT30;67932;50.474;4.436;2023-07-13T03:44:47;14.90;83.71
78611;SHT30;67932;50.474;4.436;2023-07-13T03:47:18;14.89;83.79
78611;SHT30;67932;50.474;4.436;2023-07-13T03:49:44;14.87;83.73
78611;SHT30;67932;50.474;4.436;2023-07-13T03:52:12;14.91;83.69
78611;SHT30;67932;50.474;4.436;2023-07-13T03:54:38;14.99;83.57
78611;SHT30;67932;50.474;4.436;2023-07-13T03:57:04;14.96;83.69
78611;SHT30;67932;50.474;4.436;2023-07-13T03:59:31;14.96;83.75
78611;SHT30;67932;50.474;4.436;2023-07-13T04:01:57;14.99;83.55
78611;SHT30;67932;50.474;4.436;2023-07-13T04:04:23;15.08;83.45
78611;SHT30;67932;50.474;4.436;2023-07-13T04:06:49;15.14;83.22
78611;SHT30;67932;50.474;4.436;2023-07-13T04:09:19;15.16;83.00
78611;SHT30;67932;50.474;4.436;2023-07-13T04:11:45;15.14;83.18
78611;SHT30;67932;50.474;4.436;2023-07-13T04:14:11;15.16;83.25
78611;SHT30;67932;50.474;4.436;2023-07-13T04:16:37;15.19;82.98
78611;SHT30;67932;50.474;4.436;2023-07-13T04:19:04;15.06;83.48
78611;SHT30;67932;50.474;4.436;2023-07-13T04:21:31;15.17;83.19
78611;SHT30;67932;50.474;4.436;2023-07-13T04:23:58;15.23;82.98
78611;SHT30;67932;50.474;4.436;2023-07-13T04:26:24;15.21;83.07
78611;SHT30;67932;50.474;4.436;2023-07-13T04:28:51;15.23;83.16
78611;SHT30;67932;50.474;4.436;2023-07-13T04:31:18;15.31;82.80
78611;SHT30;67932;50.474;4.436;2023-07-13T04:33:44;15.20;83.22
78611;SHT30;67932;50.474;4.436;2023-07-13T04:36:12;15.19;83.22
78611;SHT30;67932;50.474;4.436;2023-07-13T04:38:38;15.19;83.45
78611;SHT30;67932;50.474;4.436;2023-07-13T04:41:06;15.23;83.27
78611;SHT30;67932;50.474;4.436;2023-07-13T04:43:33;15.19;83.46
78611;SHT30;67932;50.474;4.436;2023-07-13T04:46:08;15.24;83.21
78611;SHT30;67932;50.474;4.436;2023-07-13T04:48:34;15.42;82.84
78611;SHT30;67932;50.474;4.436;2023-07-13T04:51:01;15.47;82.84
78611;SHT30;67932;50.474;4.436;2023-07-13T04:53:28;15.41;82.94
78611;SHT30;67932;50.474;4.436;2023-07-13T04:55:55;15.48;82.85
78611;SHT30;67932;50.474;4.436;2023-07-13T04:58:22;15.38;82.81
78611;SHT30;67932;50.474;4.436;2023-07-13T05:00:48;15.28;83.22
78611;SHT30;67932;50.474;4.436;2023-07-13T05:03:15;15.31;83.26
78611;SHT30;67932;50.474;4.436;2023-07-13T05:05:41;15.47;82.85
78611;SHT30;67932;50.474;4.436;2023-07-13T05:08:08;15.40;83.22
78611;SHT30;67932;50.474;4.436;2023-07-13T05:10:35;15.55;82.94
78611;SHT30;67932;50.474;4.436;2023-07-13T05:13:01;15.45;83.18
78611;SHT30;67932;50.474;4.436;2023-07-13T05:15:29;15.44;82.89
78611;SHT30;67932;50.474;4.436;2023-07-13T05:17:55;15.44;82.99
78611;SHT30;67932;50.474;4.436;2023-07-13T05:20:21;15.31;83.07
78611;SHT30;67932;50.474;4.436;2023-07-13T05:22:47;15.38;83.37
78611;SHT30;67932;50.474;4.436;2023-07-13T05:25:14;15.31;83.40
78611;SHT30;67932;50.474;4.436;2023-07-13T05:27:40;15.42;83.34
78611;SHT30;67932;50.474;4.436;2023-07-13T05:30:07;15.35;83.24
78611;SHT30;67932;50.474;4.436;2023-07-13T05:32:36;15.55;82.66
78611;SHT30;67932;50.474;4.436;2023-07-13T05:35:03;15.55;82.46
78611;SHT30;67932;50.474;4.436;2023-07-13T05:37:29;15.59;82.46
78611;SHT30;67932;50.474;4.436;2023-07-13T05:39:55;15.50;82.46
78611;SHT30;67932;50.474;4.436;2023-07-13T05:42:22;15.47;82.47
78611;SHT30;67932;50.474;4.436;2023-07-13T05:44:48;15.64;82.01
78611;SHT30;67932;50.474;4.436;2023-07-13T05:47:14;15.78;81.72
78611;SHT30;67932;50.474;4.436;2023-07-13T05:49:41;15.68;81.82
78611;SHT30;67932;50.474;4.436;2023-07-13T05:52:07;15.62;81.84
78611;SHT30;67932;50.474;4.436;2023-07-13T05:54:34;15.72;81.49
78611;SHT30;67932;50.474;4.436;2023-07-13T05:57:00;15.65;81.93
78611;SHT30;67932;50.474;4.436;2023-07-13T05:59:26;15.74;81.46
78611;SHT30;67932;50.474;4.436;2023-07-13T06:01:52;15.86;81.19
78611;SHT30;67932;50.474;4.436;2023-07-13T06:04:19;15.95;80.88
78611;SHT30;67932;50.474;4.436;2023-07-13T06:06:47;15.84;80.58
78611;SHT30;67932;50.474;4.436;2023-07-13T06:09:14;15.82;80.48
78611;SHT30;67932;50.474;4.436;2023-07-13T06:11:40;15.88;80.53
78611;SHT30;67932;50.474;4.436;2023-07-13T06:14:06;16.01;80.48
78611;SHT30;67932;50.474;4.436;2023-07-13T06:16:32;15.92;80.58
78611;SHT30;67932;50.474;4.436;2023-07-13T06:18:59;16.05;80.17
78611;SHT30;67932;50.474;4.436;2023-07-13T06:21:25;16.20;79.97
78611;SHT30;67932;50.474;4.436;2023-07-13T06:23:52;15.99;80.25
78611;SHT30;67932;50.474;4.436;2023-07-13T06:26:20;16.08;80.18
78611;SHT30;67932;50.474;4.436;2023-07-13T06:28:46;16.23;80.00
78611;SHT30;67932;50.474;4.436;2023-07-13T06:31:14;16.20;80.08
78611;SHT30;67932;50.474;4.436;2023-07-13T06:33:40;16.22;79.36
78611;SHT30;67932;50.474;4.436;2023-07-13T06:36:07;16.29;79.56
78611;SHT30;67932;50.474;4.436;2023-07-13T06:38:34;16.39;79.04
78611;SHT30;67932;50.474;4.436;2023-07-13T06:41:01;16.39;79.02
78611;SHT30;67932;50.474;4.436;2023-07-13T06:43:27;16.27;78.85
78611;SHT30;67932;50.474;4.436;2023-07-13T06:45:56;16.33;78.72
78611;SHT30;67932;50.474;4.436;2023-07-13T06:48:22;16.59;78.70
78611;SHT30;67932;50.474;4.436;2023-07-13T06:50:49;16.59;78.37
78611;SHT30;67932;50.474;4.436;2023-07-13T06:53:18;16.67;77.81
78611;SHT30;67932;50.474;4.436;2023-07-13T06:55:45;16.53;78.29
78611;SHT30;67932;50.474;4.436;2023-07-13T06:58:12;16.34;78.70
78611;SHT30;67932;50.474;4.436;2023-07-13T07:00:38;16.50;78.44
78611;SHT30;67932;50.474;4.436;2023-07-13T07:03:06;16.59;78.03
78611;SHT30;67932;50.474;4.436;2023-07-13T07:05:32;16.74;78.11
78611;SHT30;67932;50.474;4.436;2023-07-13T07:07:59;16.74;77.72
78611;SHT30;67932;50.474;4.436;2023-07-13T07:10:26;16.64;77.68
78611;SHT30;67932;50.474;4.436;2023-07-13T07:12:52;16.80;77.75
78611;SHT30;67932;50.474;4.436;2023-07-13T07:15:18;16.77;77.90
78611;SHT30;67932;50.474;4.436;2023-07-13T07:17:45;16.77;77.50
78611;SHT30;67932;50.474;4.436;2023-07-13T07:20:11;16.81;77.79
78611;SHT30;67932;50.474;4.436;2023-07-13T07:22:37;16.76;77.25
78611;SHT30;67932;50.474;4.436;2023-07-13T07:25:04;16.80;77.07
78611;SHT30;67932;50.474;4.436;2023-07-13T07:27:30;16.91;77.16
78611;SHT30;67932;50.474;4.436;2023-07-13T07:29:56;17.06;76.66
78611;SHT30;67932;50.474;4.436;2023-07-13T07:32:23;17.04;76.27
78611;SHT30;67932;50.474;4.436;2023-07-13T07:34:50;17.00;76.67
78611;SHT30;67932;50.474;4.436;2023-07-13T07:37:16;17.14;76.27
78611;SHT30;67932;50.474;4.436;2023-07-13T07:39:44;17.01;76.66
78611;SHT30;67932;50.474;4.436;2023-07-13T07:42:11;17.04;76.75
78611;SHT30;67932;50.474;4.436;2023-07-13T07:44:39;16.85;76.79
78611;SHT30;67932;50.474;4.436;2023-07-13T07:47:06;17.23;76.72
78611;SHT30;67932;50.474;4.436;2023-07-13T07:49:34;17.15;76.36
78611;SHT30;67932;50.474;4.436;2023-07-13T07:52:00;17.28;76.04
78611;SHT30;67932;50.474;4.436;2023-07-13T07:54:27;17.25;75.86
78611;SHT30;67932;50.474;4.436;2023-07-13T07:56:53;17.25;75.60
78611;SHT30;67932;50.474;4.436;2023-07-13T07:59:20;17.15;76.31
78611;SHT30;67932;50.474;4.436;2023-07-13T08:01:46;17.13;76.27
78611;SHT30;67932;50.474;4.436;2023-07-13T08:04:14;17.27;75.76
78611;SHT30;67932;50.474;4.436;2023-07-13T08:06:40;17.17;76.00
78611;SHT30;67932;50.474;4.436;2023-07-13T08:09:06;17.01;76.41
78611;SHT30;67932;50.474;4.436;2023-07-13T08:11:34;17.15;76.22
78611;SHT30;67932;50.474;4.436;2023-07-13T08:14:00;17.07;76.60
78611;SHT30;67932;50.474;4.436;2023-07-13T08:16:26;17.15;76.25
78611;SHT30;67932;50.474;4.436;2023-07-13T08:18:53;17.31;75.74
78611;SHT30;67932;50.474;4.436;2023-07-13T08:21:20;17.42;75.34
78611;SHT30;67932;50.474;4.436;2023-07-13T08:23:46;17.24;75.75
78611;SHT30;67932;50.474;4.436;2023-07-13T08:26:12;17.38;75.60
78611;SHT30;67932;50.474;4.436;2023-07-13T08:28:39;17.52;75.20
78611;SHT30;67932;50.474;4.436;2023-07-13T08:31:07;17.51;75.01
78611;SHT30;67932;50.474;4.436;2023-07-13T08:33:35;17.64;75.06
78611;SHT30;67932;50.474;4.436;2023-07-13T08:36:02;17.64;74.58
78611;SHT30;67932;50.474;4.436;2023-07-13T08:38:29;17.68;74.36
78611;SHT30;67932;50.474;4.436;2023-07-13T08:40:56;17.71;74.44
78611;SHT30;67932;50.474;4.436;2023-07-13T08:43:36;17.71;74.21
78611;SHT30;67932;50.474;4.436;2023-07-13T08:46:11;17.54;74.44
78611;SHT30;67932;50.474;4.436;2023-07-13T08:48:51;17.66;74.29
78611;SHT30;67932;50.474;4.436;2023-07-13T08:53:51;17.64;73.92
78611;SHT30;67932;50.474;4.436;2023-07-13T08:56:21;17.92;73.62
78611;SHT30;67932;50.474;4.436;2023-07-13T08:58:55;18.09;74.02
78611;SHT30;67932;50.474;4.436;2023-07-13T09:01:24;18.08;73.61
78611;SHT30;67932;50.474;4.436;2023-07-13T09:06:55;18.17;72.79
78611;SHT30;67932;50.474;4.436;2023-07-13T09:12:19;18.32;72.61
78611;SHT30;67932;50.474;4.436;2023-07-13T09:14:55;18.36;72.41
78611;SHT30;67932;50.474;4.436;2023-07-13T09:17:36;18.44;71.90
78611;SHT30;67932;50.474;4.436;2023-07-13T09:20:49;18.33;71.70
78611;SHT30;67932;50.474;4.436;2023-07-13T09:23:19;18.46;71.52
78611;SHT30;67932;50.474;4.436;2023-07-13T09:25:49;18.43;72.03
78611;SHT30;67932;50.474;4.436;2023-07-13T09:28:29;18.44;72.04
78611;SHT30;67932;50.474;4.436;2023-07-13T09:33:44;18.64;70.02
78611;SHT30;67932;50.474;4.436;2023-07-13T09:36:32;18.65;70.80
78611;SHT30;67932;50.474;4.436;2023-07-13T09:47:22;18.75;70.29
78611;SHT30;67932;50.474;4.436;2023-07-13T09:49:56;18.53;70.08
78611;SHT30;67932;50.474;4.436;2023-07-13T09:52:24;19.01;69.14
78611;SHT30;67932;50.474;4.436;2023-07-13T09:54:53;18.73;69.45
78611;SHT30;67932;50.474;4.436;2023-07-13T09:57:26;18.49;70.29
78611;SHT30;67932;50.474;4.436;2023-07-13T09:59:54;18.83;69.72
78611;SHT30;67932;50.474;4.436;2023-07-13T10:02:33;19.08;69.14
78611;SHT30;67932;50.474;4.436;2023-07-13T10:05:03;18.97;69.80
78611;SHT30;67932;50.474;4.436;2023-07-13T10:07:30;18.87;69.61
78611;SHT30;67932;50.474;4.436;2023-07-13T10:09:59;18.59;70.28
78611;SHT30;67932;50.474;4.436;2023-07-13T10:12:29;18.65;70.13
78611;SHT30;67932;50.474;4.436;2023-07-13T10:14:58;18.97;69.60
78611;SHT30;67932;50.474;4.436;2023-07-13T10:17:31;18.77;67.98
78611;SHT30;67932;50.474;4.436;2023-07-13T10:20:04;18.71;67.26
78611;SHT30;67932;50.474;4.436;2023-07-13T10:23:05;18.95;67.13
78611;SHT30;67932;50.474;4.436;2023-07-13T10:25:39;18.67;68.35
78611;SHT30;67932;50.474;4.436;2023-07-13T10:28:29;18.80;68.87
78611;SHT30;67932;50.474;4.436;2023-07-13T10:30:57;19.15;67.77
78611;SHT30;67932;50.474;4.436;2023-07-13T10:33:24;19.00;67.02
78611;SHT30;67932;50.474;4.436;2023-07-13T10:35:57;18.97;66.94
78611;SHT30;67932;50.474;4.436;2023-07-13T10:38:29;18.95;66.02
78611;SHT30;67932;50.474;4.436;2023-07-13T10:41:03;19.05;66.06
78611;SHT30;67932;50.474;4.436;2023-07-13T10:43:44;19.66;65.56
78611;SHT30;67932;50.474;4.436;2023-07-13T10:46:14;19.44;64.41
78611;SHT30;67932;50.474;4.436;2023-07-13T10:48:43;19.59;63.52
78611;SHT30;67932;50.474;4.436;2023-07-13T10:51:13;19.41;63.18
78611;SHT30;67932;50.474;4.436;2023-07-13T10:53:39;19.70;64.25
78611;SHT30;67932;50.474;4.436;2023-07-13T10:56:26;19.90;64.05
78611;SHT30;67932;50.474;4.436;2023-07-13T10:59:16;20.00;62.64
78611;SHT30;67932;50.474;4.436;2023-07-13T11:01:58;20.24;62.22
78611;SHT30;67932;50.474;4.436;2023-07-13T11:04:59;20.06;61.78
78611;SHT30;67932;50.474;4.436;2023-07-13T11:07:54;20.30;62.13
78611;SHT30;67932;50.474;4.436;2023-07-13T11:10:48;20.20;62.92
78611;SHT30;67932;50.474;4.436;2023-07-13T11:16:43;20.09;63.47
78611;SHT30;67932;50.474;4.436;2023-07-13T11:22:02;20.34;63.00
78611;SHT30;67932;50.474;4.436;2023-07-13T11:25:02;20.67;61.69
78611;SHT30;67932;50.474;4.436;2023-07-13T11:28:31;20.76;62.67
78611;SHT30;67932;50.474;4.436;2023-07-13T11:30:48;20.44;60.67
78611;SHT30;67932;50.474;4.436;2023-07-13T11:33:17;20.08;62.13
78611;SHT30;67932;50.474;4.436;2023-07-13T11:38:42;20.48;60.69
78611;SHT30;67932;50.474;4.436;2023-07-13T11:41:17;20.83;60.02
78611;SHT30;67932;50.474;4.436;2023-07-13T11:43:48;20.80;57.59
78611;SHT30;67932;50.474;4.436;2023-07-13T11:46:27;21.28;56.20
78611;SHT30;67932;50.474;4.436;2023-07-13T11:48:54;21.51;54.06
78611;SHT30;67932;50.474;4.436;2023-07-13T11:51:32;21.81;54.04
78611;SHT30;67932;50.474;4.436;2023-07-13T11:54:05;21.55;55.00
78611;SHT30;67932;50.474;4.436;2023-07-13T11:56:33;21.42;56.06
78611;SHT30;67932;50.474;4.436;2023-07-13T11:59:06;21.79;56.23
78611;SHT30;67932;50.474;4.436;2023-07-13T12:01:33;22.26;52.78
78611;SHT30;67932;50.474;4.436;2023-07-13T12:04:02;22.39;51.54
78611;SHT30;67932;50.474;4.436;2023-07-13T12:06:35;21.83;53.86
78611;SHT30;67932;50.474;4.436;2023-07-13T12:09:14;21.75;52.96
78611;SHT30;67932;50.474;4.436;2023-07-13T12:11:45;21.59;53.84
78611;SHT30;67932;50.474;4.436;2023-07-13T12:14:16;21.63;54.54
78611;SHT30;67932;50.474;4.436;2023-07-13T12:16:43;21.93;52.37
78611;SHT30;67932;50.474;4.436;2023-07-13T12:19:26;22.39;51.08
78611;SHT30;67932;50.474;4.436;2023-07-13T12:21:56;21.71;52.87
78611;SHT30;67932;50.474;4.436;2023-07-13T12:24:24;21.62;52.76
78611;SHT30;67932;50.474;4.436;2023-07-13T12:26:53;22.13;51.71
78611;SHT30;67932;50.474;4.436;2023-07-13T12:29:20;21.75;51.92
78611;SHT30;67932;50.474;4.436;2023-07-13T12:31:48;22.68;50.44
78611;SHT30;67932;50.474;4.436;2023-07-13T12:34:18;22.26;50.50
78611;SHT30;67932;50.474;4.436;2023-07-13T12:37:03;22.98;49.08
78611;SHT30;67932;50.474;4.436;2023-07-13T12:39:35;22.41;50.59
78611;SHT30;67932;50.474;4.436;2023-07-13T12:44:56;24.49;46.47
78611;SHT30;67932;50.474;4.436;2023-07-13T12:47:23;24.19;47.64
78611;SHT30;67932;50.474;4.436;2023-07-13T12:49:57;23.96;47.72
78611;SHT30;67932;50.474;4.436;2023-07-13T12:52:34;23.12;49.31
78611;SHT30;67932;50.474;4.436;2023-07-13T12:55:07;22.83;49.52
78611;SHT30;67932;50.474;4.436;2023-07-13T12:57:56;22.70;49.73
78611;SHT30;67932;50.474;4.436;2023-07-13T13:00:31;22.30;51.19
78611;SHT30;67932;50.474;4.436;2023-07-13T13:03:15;23.26;49.97
78611;SHT30;67932;50.474;4.436;2023-07-13T13:05:44;23.22;49.20
78611;SHT30;67932;50.474;4.436;2023-07-13T13:08:14;23.75;46.71
78611;SHT30;67932;50.474;4.436;2023-07-13T13:10:41;22.81;48.27
78611;SHT30;67932;50.474;4.436;2023-07-13T13:13:07;22.77;47.58
78611;SHT30;67932;50.474;4.436;2023-07-13T13:15:34;22.81;47.38
78611;SHT30;67932;50.474;4.436;2023-07-13T13:18:01;22.81;47.99
78611;SHT30;67932;50.474;4.436;2023-07-13T13:20:27;23.31;46.85
78611;SHT30;67932;50.474;4.436;2023-07-13T13:22:54;23.22;47.61
78611;SHT30;67932;50.474;4.436;2023-07-13T13:25:21;23.67;46.54
78611;SHT30;67932;50.474;4.436;2023-07-13T13:27:48;24.49;45.47
78611;SHT30;67932;50.474;4.436;2023-07-13T13:30:17;23.99;46.31
78611;SHT30;67932;50.474;4.436;2023-07-13T13:32:46;23.53;46.19
78611;SHT30;67932;50.474;4.436;2023-07-13T13:35:14;24.33;45.84
78611;SHT30;67932;50.474;4.436;2023-07-13T13:37:41;23.58;47.65
78611;SHT30;67932;50.474;4.436;2023-07-13T13:40:15;23.66;47.19
78611;SHT30;67932;50.474;4.436;2023-07-13T13:42:43;24.34;46.19
78611;SHT30;67932;50.474;4.436;2023-07-13T13:45:10;24.59;45.74
78611;SHT30;67932;50.474;4.436;2023-07-13T13:47:38;23.73;46.59
78611;SHT30;67932;50.474;4.436;2023-07-13T13:50:20;23.41;47.78
78611;SHT30;67932;50.474;4.436;2023-07-13T13:52:48;23.37;48.15
78611;SHT30;67932;50.474;4.436;2023-07-13T13:55:19;22.44;50.13
78611;SHT30;67932;50.474;4.436;2023-07-13T13:57:47;22.56;50.30
78611;SHT30;67932;50.474;4.436;2023-07-13T14:00:15;22.81;49.76
78611;SHT30;67932;50.474;4.436;2023-07-13T14:02:45;22.53;50.02
78611;SHT30;67932;50.474;4.436;2023-07-13T14:05:21;23.07;48.77
78611;SHT30;67932;50.474;4.436;2023-07-13T14:07:48;22.67;50.27
78611;SHT30;67932;50.474;4.436;2023-07-13T14:10:17;22.16;51.65
78611;SHT30;67932;50.474;4.436;2023-07-13T14:12:46;21.92;52.37
78611;SHT30;67932;50.474;4.436;2023-07-13T14:15:21;21.96;52.63
78611;SHT30;67932;50.474;4.436;2023-07-13T14:17:47;22.06;52.70
78611;SHT30;67932;50.474;4.436;2023-07-13T14:20:18;23.02;50.59
78611;SHT30;67932;50.474;4.436;2023-07-13T14:22:45;23.77;47.86
78611;SHT30;67932;50.474;4.436;2023-07-13T14:25:12;23.92;47.84
78611;SHT30;67932;50.474;4.436;2023-07-13T14:27:40;24.56;45.73
78611;SHT30;67932;50.474;4.436;2023-07-13T14:30:18;23.90;46.50
78611;SHT30;67932;50.474;4.436;2023-07-13T14:32:45;24.43;46.53
78611;SHT30;67932;50.474;4.436;2023-07-13T14:35:15;24.70;45.73
78611;SHT30;67932;50.474;4.436;2023-07-13T14:37:42;25.45;43.74
78611;SHT30;67932;50.474;4.436;2023-07-13T14:40:17;25.21;43.74
78611;SHT30;67932;50.474;4.436;2023-07-13T14:42:45;24.99;44.98
78611;SHT30;67932;50.474;4.436;2023-07-13T14:45:17;23.96;47.38
78611;SHT30;67932;50.474;4.436;2023-07-13T14:47:44;24.67;45.74
78611;SHT30;67932;50.474;4.436;2023-07-13T14:50:25;23.67;45.89
78611;SHT30;67932;50.474;4.436;2023-07-13T14:52:53;23.97;44.72
78611;SHT30;67932;50.474;4.436;2023-07-13T14:55:19;23.62;46.05
78611;SHT30;67932;50.474;4.436;2023-07-13T14:57:47;23.59;44.74
78611;SHT30;67932;50.474;4.436;2023-07-13T15:02:43;24.60;41.67
78611;SHT30;67932;50.474;4.436;2023-07-13T15:05:18;25.34;40.05
78611;SHT30;67932;50.474;4.436;2023-07-13T15:07:45;24.99;40.14
78611;SHT30;67932;50.474;4.436;2023-07-13T15:10:23;24.02;40.74
78611;SHT30;67932;50.474;4.436;2023-07-13T15:12:52;24.44;40.61
78611;SHT30;67932;50.474;4.436;2023-07-13T15:15:19;23.67;42.72
78611;SHT30;67932;50.474;4.436;2023-07-13T15:17:47;24.06;41.31
78611;SHT30;67932;50.474;4.436;2023-07-13T15:22:49;25.22;39.47
78611;SHT30;67932;50.474;4.436;2023-07-13T15:25:22;25.88;38.42
78611;SHT30;67932;50.474;4.436;2023-07-13T15:27:51;25.53;39.40
78611;SHT30;67932;50.474;4.436;2023-07-13T15:30:17;24.77;40.79
78611;SHT30;67932;50.474;4.436;2023-07-13T15:32:44;24.91;40.72
78611;SHT30;67932;50.474;4.436;2023-07-13T15:35:16;26.06;38.82
78611;SHT30;67932;50.474;4.436;2023-07-13T15:37:43;26.68;39.02
78611;SHT30;67932;50.474;4.436;2023-07-13T15:40:11;27.12;36.75
78611;SHT30;67932;50.474;4.436;2023-07-13T15:42:39;25.88;39.14
78611;SHT30;67932;50.474;4.436;2023-07-13T15:45:26;25.15;40.87
78611;SHT30;67932;50.474;4.436;2023-07-13T15:47:53;25.88;39.31
78611;SHT30;67932;50.474;4.436;2023-07-13T15:50:21;26.58;38.06
78611;SHT30;67932;50.474;4.436;2023-07-13T15:52:53;25.34;40.80
78611;SHT30;67932;50.474;4.436;2023-07-13T15:55:21;25.39;40.25
78611;SHT30;67932;50.474;4.436;2023-07-13T15:57:49;25.05;41.34
78611;SHT30;67932;50.474;4.436;2023-07-13T16:00:26;26.10;39.29
78611;SHT30;67932;50.474;4.436;2023-07-13T16:02:52;25.88;40.05
78611;SHT30;67932;50.474;4.436;2023-07-13T16:05:21;25.73;40.37
78611;SHT30;67932;50.474;4.436;2023-07-13T16:07:51;26.10;39.36
78611;SHT30;67932;50.474;4.436;2023-07-13T16:13:02;26.04;40.59
78611;SHT30;67932;50.474;4.436;2023-07-13T16:15:30;27.01;38.47
78611;SHT30;67932;50.474;4.436;2023-07-13T16:17:57;26.17;40.14
78611;SHT30;67932;50.474;4.436;2023-07-13T16:20:25;26.80;38.28
78611;SHT30;67932;50.474;4.436;2023-07-13T16:22:53;24.75;43.65